Cross Village, MI

7:07 AM EDT on July 24, 2016 (GMT -0400)
Sturgeon Bay Michigan Shore | | Change Station

Elev 571 ft 45.67 °N, 85.00 °W | Updated 12 seconds ago

Light Rain
Light Rain
67.3 °F
Feels Like 67.3 °F
N
0.9
Wind Variable Wind from SE
Gusts 2.0 mph

Today
High -- | Low -- °F
--% Chance of Precip.
Yesterday
High -- | Low -- °F
Precip. -- in
Pressure 29.88 in
Visibility 9.0 miles
Clouds Scattered Clouds 3000 ft
Mostly Cloudy 5000 ft
Overcast 10000 ft
Dew Point 67 °F
Humidity 100%
Rainfall 0.00 in
Snow Depth Not available.
6:15 AM 9:17 PM
Waning Gibbous, 77% visible
METAR KPLN 241054Z AUTO 04005KT 9SM -RA SCT030 BKN050 OVC100 20/18 A2989 RMK AO2 RAB17 SLP117 P0001 T02000178
Pressure 29.88 in
Visibility 9.0 miles
Clouds Scattered Clouds 3000 ft
Mostly Cloudy 5000 ft
Overcast 10000 ft
Dew Point 67 °F
Humidity 100%
Rainfall 0.00 in
Snow Depth Not available.
6:15 AM 9:17 PM
Waning Gibbous, 77% visible
METAR KPLN 241054Z AUTO 04005KT 9SM -RA SCT030 BKN050 OVC100 20/18 A2989 RMK AO2 RAB17 SLP117 P0001 T02000178

10-Day Weather Forecast

Almanac

Astronomy

Jul. 24, 2016 Rise Set
Actual Time
Civil Twilight
Nautical Twilight
Astronomical Twilight
Moon
Length of Visible Light
Length of Day
Tomorrow will be .
, % of the Moon is Illuminated

Today's Extremes

State Highs State Lows

Community

WunderPhotos

Upload Photos

1,927,047 photos uploaded!

WunderBlog® & News

Nearby

Air Quality

  Air Quality AQ Index Pollutant
Not available.

Snow Depth

Station Depth Elevation

Earthquake Activity

City Distance Mag. Time & Date
Minimum magnitude displayed is 2.5.

Coastal Water Temperatures

Place Temperature

Stations

Nearby Weather Stations

Station Location Temp. Windchill Dew Point Humidity Wind Precip. Elev Updated Type
                   

Watches & Warnings

There are currently no watches in effect.